Suffolk, VA (23438)

9:35 AM EDT on July 03, 2015 (GMT -0400)
GPKandSon | | Change Station
CLOSE
Current Station
Personal Weather Station
Location: Corapeake, NC
Elevation: 45 ft
Nearby Weather Stations

Elev 45 ft 36.52 °N, 76.58 °W | Updated 10 minutes ago

Partly Cloudy
Partly Cloudy
75.8 °F
Feels Like 76 °F
N
0.0
Wind Variable Wind from ESE
Gusts 2.0 mph

Today
High -- | Low -- °F
--% Chance of Precip.
Yesterday
High -- | Low -- °F
Precip. -- in
5:53 AM 8:28 PM
Full, 97% visible
Pressure 30.00 in
Visibility 10.0 miles
Clouds Scattered Clouds 1000 ft
Scattered Clouds 1900 ft
Heat Index 76 °F
Dew Point 72 °F
Humidity 89%
Rainfall 0.00 in
Snow Depth Not available.
UV 4 out of 12
Pollen .50 out of 12
Air Quality Not available.
Flu Activity Not available.
METAR KSFQ 031315Z AUTO 07003KT 10SM SCT010 SCT019 23/20 A3000 RMK AO2 T02310202

More Conditions Fewer Conditions

Pressure 30.00 in
Visibility 10.0 miles
Clouds Scattered Clouds 1000 ft
Scattered Clouds 1900 ft
Heat Index 76 °F
Dew Point 72 °F
Humidity 89%
Rainfall 0.00 in
Snow Depth Not available.
UV 4 out of 12
Pollen .50 out of 12
Air Quality Not available.
Flu Activity Not available.
METAR KSFQ 031315Z AUTO 07003KT 10SM SCT010 SCT019 23/20 A3000 RMK AO2 T02310202

More Conditions Fewer Conditions

10-Day Weather Forecast

×

Almanac

Astronomy

Jul. 03, 2015 Rise Set
Actual Time
Civil Twilight
Nautical Twilight
Astronomical Twilight
Moon
Length of Visible Light
Length of Day
Tomorrow will be .
, % of the Moon is Illuminated

Today's Extremes

State Highs State Lows

Community

WunderPhotos

Upload Photos

1,834,670 photos uploaded!

WunderBlogs® & News

Nearby

Air Quality

  Air Quality AQ Index Pollutant
Not available.

Snow Depth

Station Depth Elevation

Earthquake Activity

City Distance Mag. Time & Date
Minimum magnitude displayed is 2.5.

Coastal Water Temperatures

Place Temperature

Stations

Nearby Weather Stations

Station Location Temp. Windchill Dew Point Humidity Wind Precip. Elev Updated Type